createdAt,value
2022-10-26T00:00:52.204Z,0.20
2022-10-26T00:03:21.368Z,0.20
2022-10-26T00:05:48.124Z,0.30
2022-10-26T00:08:14.775Z,0.20
2022-10-26T00:10:41.884Z,0.30
2022-10-26T00:13:10.950Z,0.20
2022-10-26T00:15:41.060Z,0.20
2022-10-26T00:18:07.894Z,0.30
2022-10-26T00:20:34.684Z,0.30
2022-10-26T00:23:01.365Z,0.20
2022-10-26T00:25:27.977Z,0.20
2022-10-26T00:27:54.541Z,0.20
2022-10-26T00:30:21.248Z,0.20
2022-10-26T00:32:47.849Z,0.35
2022-10-26T00:35:22.914Z,0.17
2022-10-26T00:37:56.961Z,0.13
2022-10-26T00:40:28.276Z,0.10
2022-10-26T00:42:54.867Z,0.20
2022-10-26T00:45:29.833Z,0.10
2022-10-26T00:47:59.981Z,0.20
2022-10-26T00:50:33.769Z,0.10
2022-10-26T00:53:03.551Z,0.22
2022-10-26T00:55:35.260Z,0.20
2022-10-26T00:58:05.737Z,0.20
2022-10-26T01:00:33.801Z,0.20
2022-10-26T01:03:06.201Z,0.10
2022-10-26T01:05:35.311Z,0.10
2022-10-26T01:08:02.514Z,0.30
2022-10-26T01:10:33.034Z,0.35
2022-10-26T01:13:00.590Z,0.10
2022-10-26T01:15:42.243Z,0.20
2022-10-26T01:18:32.881Z,0.20
2022-10-26T01:21:27.703Z,0.30
2022-10-26T01:24:09.576Z,0.32
2022-10-26T01:27:18.016Z,0.20
2022-10-26T01:30:12.243Z,0.20
2022-10-26T01:32:55.532Z,0.20
2022-10-26T01:35:35.680Z,0.38
2022-10-26T01:38:11.738Z,0.10
2022-10-26T01:40:42.898Z,0.15
2022-10-26T01:43:13.278Z,0.20
2022-10-26T01:45:43.765Z,0.25
2022-10-26T01:48:16.340Z,0.20
2022-10-26T01:50:47.912Z,0.40
2022-10-26T01:53:16.143Z,0.30
2022-10-26T01:55:51.596Z,0.68
2022-10-26T01:58:36.956Z,0.10
2022-10-26T02:01:31.383Z,0.10
2022-10-26T02:04:13.074Z,0.38
2022-10-26T02:06:39.655Z,0.10
2022-10-26T02:09:20.432Z,0.10
2022-10-26T02:11:51.676Z,0.20
2022-10-26T02:15:08.674Z,0.20
2022-10-26T02:17:48.666Z,0.30
2022-10-26T02:20:24.717Z,0.20
2022-10-26T02:22:53.517Z,0.20
2022-10-26T02:25:25.952Z,0.40
2022-10-26T02:27:57.940Z,0.30
2022-10-26T02:30:25.273Z,0.30
2022-10-26T02:32:55.016Z,0.30
2022-10-26T02:35:26.120Z,0.40
2022-10-26T02:37:56.108Z,0.20
2022-10-26T02:40:26.648Z,0.57
2022-10-26T02:42:56.116Z,0.50
2022-10-26T02:45:30.857Z,0.50
2022-10-26T02:47:58.179Z,0.70
2022-10-26T02:50:33.625Z,0.68
2022-10-26T02:53:31.133Z,0.68
2022-10-26T02:56:00.627Z,0.70
2022-10-26T02:58:31.969Z,0.52
2022-10-26T03:01:00.268Z,0.40
2022-10-26T03:03:26.904Z,0.57
2022-10-26T03:05:53.693Z,0.43
2022-10-26T03:08:20.352Z,0.40
2022-10-26T03:10:47.065Z,0.40
2022-10-26T03:13:14.421Z,0.30
2022-10-26T03:15:41.644Z,0.40
2022-10-26T03:18:09.097Z,0.52
2022-10-26T03:20:35.812Z,0.70
2022-10-26T03:23:02.513Z,0.55
2022-10-26T03:25:29.251Z,0.63
2022-10-26T03:28:00.357Z,0.60
2022-10-26T03:30:28.074Z,0.68
2022-10-26T03:32:55.094Z,0.70
2022-10-26T03:35:22.036Z,0.60
2022-10-26T03:37:49.077Z,0.70
2022-10-26T03:40:16.287Z,0.40
2022-10-26T03:42:43.121Z,0.50
2022-10-26T03:45:10.322Z,0.68
2022-10-26T03:47:47.498Z,0.55
2022-10-26T03:50:16.266Z,0.60
2022-10-26T03:52:43.227Z,0.55
2022-10-26T03:55:10.594Z,1.13
2022-10-26T03:57:44.509Z,0.45
2022-10-26T04:00:15.341Z,0.40
2022-10-26T04:02:48.766Z,0.50
2022-10-26T04:05:16.841Z,0.40
2022-10-26T04:07:43.799Z,0.40
2022-10-26T04:10:10.715Z,0.20
2022-10-26T04:12:38.721Z,0.30
2022-10-26T04:15:07.484Z,0.30
2022-10-26T04:17:34.571Z,0.32
2022-10-26T04:20:01.840Z,0.38
2022-10-26T04:22:28.473Z,0.40
2022-10-26T04:24:55.168Z,0.60
2022-10-26T04:27:22.108Z,0.30
2022-10-26T04:29:48.739Z,0.40
2022-10-26T04:32:15.448Z,0.30
2022-10-26T04:34:42.086Z,0.30
2022-10-26T04:37:10.916Z,0.50
2022-10-26T04:39:37.600Z,0.50
2022-10-26T04:42:06.164Z,0.60
2022-10-26T04:44:33.254Z,0.38
2022-10-26T04:46:59.797Z,0.40
2022-10-26T04:49:26.465Z,0.30
2022-10-26T04:51:53.100Z,0.50
2022-10-26T04:54:19.768Z,0.50
2022-10-26T04:56:48.423Z,0.60
2022-10-26T04:59:15.937Z,0.50
2022-10-26T05:01:43.445Z,0.57
2022-10-26T05:04:10.125Z,0.52
2022-10-26T05:06:36.827Z,0.77
2022-10-26T05:09:04.659Z,0.40
2022-10-26T05:11:31.279Z,0.43
2022-10-26T05:14:00.117Z,0.47
2022-10-26T05:16:26.797Z,0.22
2022-10-26T05:18:53.404Z,0.50
2022-10-26T05:21:20.604Z,0.30
2022-10-26T05:23:55.448Z,0.60
2022-10-26T05:26:24.896Z,0.40
2022-10-26T05:28:52.190Z,0.50
2022-10-26T05:31:19.553Z,0.45
2022-10-26T05:33:52.493Z,1.33
2022-10-26T05:36:19.124Z,0.50
2022-10-26T05:38:45.995Z,0.70
2022-10-26T05:41:15.489Z,1.17
2022-10-26T05:43:42.096Z,1.10
2022-10-26T05:46:08.701Z,1.65
2022-10-26T05:48:35.308Z,1.52
2022-10-26T05:51:02.141Z,2.38
2022-10-26T05:53:28.860Z,2.60
2022-10-26T05:55:56.856Z,1.63
2022-10-26T05:58:23.896Z,2.15
2022-10-26T06:01:43.563Z,2.00
2022-10-26T06:04:19.605Z,1.80
2022-10-26T06:06:51.256Z,1.20
2022-10-26T06:09:18.157Z,1.00
2022-10-26T06:11:45.158Z,0.93
2022-10-26T06:14:12.147Z,0.88
2022-10-26T06:16:58.157Z,1.02
2022-10-26T06:19:54.756Z,1.08
2022-10-26T06:22:44.831Z,1.00
2022-10-26T06:25:39.339Z,1.45
2022-10-26T06:28:23.152Z,2.28
2022-10-26T06:30:49.830Z,2.15
2022-10-26T06:33:28.817Z,1.10
2022-10-26T06:36:27.603Z,1.73
2022-10-26T06:39:06.544Z,1.98
2022-10-26T06:41:35.297Z,1.67
2022-10-26T06:44:05.129Z,0.80
2022-10-26T06:47:09.931Z,0.98
2022-10-26T06:50:06.991Z,1.02
2022-10-26T06:52:57.747Z,0.93
2022-10-26T06:55:26.890Z,0.95
2022-10-26T06:57:53.889Z,0.75
2022-10-26T07:00:25.286Z,0.68
2022-10-26T07:02:52.529Z,0.52
2022-10-26T07:05:21.515Z,0.75
2022-10-26T07:07:48.664Z,0.40
2022-10-26T07:10:15.834Z,0.60
2022-10-26T07:12:42.485Z,0.40
2022-10-26T07:17:46.325Z,0.50
2022-10-26T07:20:13.455Z,0.50
2022-10-26T07:22:40.881Z,0.55
2022-10-26T07:25:08.186Z,0.50
2022-10-26T07:27:35.137Z,0.40
2022-10-26T07:30:02.988Z,0.40
2022-10-26T07:32:30.433Z,0.68
2022-10-26T07:34:57.107Z,0.47
2022-10-26T07:37:23.786Z,0.50
2022-10-26T07:39:50.789Z,0.70
2022-10-26T07:42:19.337Z,0.80
2022-10-26T07:44:45.993Z,0.60
2022-10-26T07:47:12.759Z,0.60
2022-10-26T07:49:39.692Z,0.47
2022-10-26T07:52:06.507Z,0.50
2022-10-26T07:54:33.244Z,0.40
2022-10-26T07:57:00.002Z,0.40
2022-10-26T07:59:28.148Z,0.55
2022-10-26T08:01:54.962Z,0.40
2022-10-26T08:04:21.678Z,0.32
2022-10-26T08:06:50.968Z,0.50
2022-10-26T08:09:17.593Z,0.50
2022-10-26T08:11:44.211Z,0.40
2022-10-26T08:14:11.801Z,0.50
2022-10-26T08:16:40.445Z,0.30
2022-10-26T08:19:07.835Z,0.40
2022-10-26T08:21:41.526Z,0.30
2022-10-26T08:24:08.652Z,0.30
2022-10-26T08:26:35.345Z,0.20
2022-10-26T08:29:01.977Z,0.30
2022-10-26T08:31:28.550Z,0.30
2022-10-26T08:33:55.115Z,0.35
2022-10-26T08:36:26.763Z,0.40
2022-10-26T08:38:53.617Z,0.40
2022-10-26T08:41:38.127Z,0.45
2022-10-26T08:44:35.524Z,0.32
2022-10-26T08:47:14.148Z,0.30
2022-10-26T08:49:48.276Z,0.30
2022-10-26T08:52:19.905Z,0.40
2022-10-26T08:54:54.287Z,0.30
2022-10-26T08:57:38.449Z,0.40
2022-10-26T09:00:12.686Z,0.40
2022-10-26T09:02:39.275Z,0.40
2022-10-26T09:05:15.527Z,0.38
2022-10-26T09:07:51.090Z,0.50
2022-10-26T09:10:40.919Z,0.43
2022-10-26T09:13:34.077Z,0.35
2022-10-26T09:16:13.068Z,0.28
2022-10-26T09:19:14.901Z,0.30
2022-10-26T09:22:22.554Z,0.30
2022-10-26T09:24:57.049Z,0.22
2022-10-26T09:29:58.087Z,0.20
2022-10-26T09:32:42.750Z,0.32
2022-10-26T09:35:25.514Z,0.20
2022-10-26T09:37:56.295Z,0.20
2022-10-26T09:40:36.865Z,0.30
2022-10-26T09:43:55.674Z,0.35
2022-10-26T09:46:28.622Z,0.30
2022-10-26T09:48:59.531Z,0.40
2022-10-26T09:51:27.360Z,0.30
2022-10-26T09:53:56.186Z,0.40
2022-10-26T09:56:23.497Z,0.30
2022-10-26T09:59:02.187Z,0.32
2022-10-26T10:01:38.176Z,0.20
2022-10-26T10:04:26.317Z,0.40
2022-10-26T10:09:28.404Z,0.30
2022-10-26T10:11:58.092Z,0.25
2022-10-26T10:14:35.975Z,0.35
2022-10-26T10:17:21.005Z,0.30
2022-10-26T10:19:47.721Z,0.30
2022-10-26T10:22:20.690Z,0.30
2022-10-26T10:24:56.160Z,0.20
2022-10-26T10:27:24.032Z,0.20
2022-10-26T10:29:53.341Z,0.30
2022-10-26T10:32:27.743Z,0.20
2022-10-26T10:34:58.591Z,0.40
2022-10-26T10:37:47.157Z,0.30
2022-10-26T10:40:27.825Z,0.30
2022-10-26T10:43:05.959Z,0.35
2022-10-26T10:45:33.945Z,0.30
2022-10-26T10:48:13.472Z,0.47
2022-10-26T10:50:53.732Z,0.40
2022-10-26T10:53:26.468Z,0.30
2022-10-26T10:56:27.025Z,0.30
2022-10-26T10:59:17.674Z,0.50
2022-10-26T11:02:11.739Z,0.30
2022-10-26T11:04:57.728Z,0.38
2022-10-26T11:07:27.953Z,0.40
2022-10-26T11:09:56.434Z,0.50
2022-10-26T11:15:06.513Z,0.35
2022-10-26T11:17:59.378Z,0.50
2022-10-26T11:20:29.294Z,0.40
2022-10-26T11:23:13.195Z,0.32
2022-10-26T11:26:22.234Z,0.30
2022-10-26T11:29:07.503Z,0.40
2022-10-26T11:31:51.972Z,0.32
2022-10-26T11:34:40.909Z,0.40
2022-10-26T11:37:45.570Z,0.40
2022-10-26T11:40:33.466Z,0.38
2022-10-26T11:43:34.978Z,0.40
2022-10-26T11:46:19.096Z,0.45
2022-10-26T11:49:11.830Z,0.30
2022-10-26T11:51:44.195Z,0.30
2022-10-26T11:54:17.026Z,0.20
2022-10-26T11:56:47.756Z,0.30
2022-10-26T11:59:22.903Z,0.30
2022-10-26T12:01:57.258Z,0.40
2022-10-26T12:04:29.666Z,0.35
2022-10-26T12:06:59.641Z,0.38
2022-10-26T12:09:35.999Z,0.30
2022-10-26T12:12:24.687Z,0.20
2022-10-26T12:15:17.043Z,0.30
2022-10-26T12:18:06.810Z,0.35
2022-10-26T12:20:48.946Z,0.38
2022-10-26T12:23:23.330Z,0.30
2022-10-26T12:26:29.950Z,0.25
2022-10-26T12:29:02.701Z,0.20
2022-10-26T12:31:32.157Z,0.40
2022-10-26T12:34:00.070Z,0.28
2022-10-26T12:36:48.585Z,0.35
2022-10-26T12:39:38.252Z,0.30
2022-10-26T12:42:04.846Z,0.20
2022-10-26T12:44:47.571Z,0.40
2022-10-26T12:47:32.441Z,0.20
2022-10-26T12:52:49.513Z,0.20
2022-10-26T12:55:31.886Z,0.30
2022-10-26T12:58:15.807Z,0.25
2022-10-26T13:01:14.993Z,0.60
2022-10-26T13:04:04.082Z,0.32
2022-10-26T13:07:07.445Z,0.30
2022-10-26T13:09:34.392Z,0.50
2022-10-26T13:12:03.690Z,0.30
2022-10-26T13:14:37.298Z,0.30
2022-10-26T13:17:22.167Z,0.40
2022-10-26T13:19:49.711Z,0.28
2022-10-26T13:22:20.546Z,0.20
2022-10-26T13:24:51.905Z,0.20
2022-10-26T13:27:18.549Z,0.20
2022-10-26T13:30:03.559Z,0.20
2022-10-26T13:32:33.471Z,0.25
2022-10-26T13:35:02.010Z,0.28
2022-10-26T13:37:35.042Z,0.40
2022-10-26T13:40:07.725Z,0.50
2022-10-26T13:42:50.429Z,0.43
2022-10-26T13:45:25.096Z,0.30
2022-10-26T13:48:41.008Z,0.40
2022-10-26T13:51:23.287Z,0.45
2022-10-26T13:54:00.911Z,0.35
2022-10-26T13:56:56.524Z,0.47
2022-10-26T13:59:25.273Z,0.50
2022-10-26T14:02:28.232Z,0.35
2022-10-26T14:05:01.141Z,0.47
2022-10-26T14:07:56.987Z,0.40
2022-10-26T14:10:28.615Z,0.35
2022-10-26T14:12:56.364Z,0.38
2022-10-26T14:15:30.846Z,0.30
2022-10-26T14:20:28.048Z,0.50
2022-10-26T14:22:54.965Z,0.50
2022-10-26T14:25:42.547Z,0.43
2022-10-26T14:28:27.060Z,0.40
2022-10-26T14:30:53.854Z,0.40
2022-10-26T14:33:26.614Z,0.15
2022-10-26T14:35:54.432Z,0.20
2022-10-26T14:38:30.215Z,0.30
2022-10-26T14:40:57.743Z,0.30
2022-10-26T14:43:27.992Z,0.30
2022-10-26T14:45:54.772Z,0.40
2022-10-26T14:48:35.545Z,0.30
2022-10-26T14:51:10.528Z,0.32
2022-10-26T14:53:40.317Z,0.40
2022-10-26T14:56:25.212Z,0.40
2022-10-26T15:01:23.850Z,0.50
2022-10-26T15:03:56.159Z,0.30
2022-10-26T15:06:29.835Z,0.50
2022-10-26T15:09:01.149Z,0.50
2022-10-26T15:11:28.825Z,0.32
2022-10-26T15:13:57.751Z,0.40
2022-10-26T15:16:27.839Z,0.40
2022-10-26T15:19:08.956Z,0.40
2022-10-26T15:21:45.643Z,0.43
2022-10-26T15:24:24.835Z,0.68
2022-10-26T15:26:51.611Z,0.40
2022-10-26T15:29:42.907Z,0.40
2022-10-26T15:32:30.007Z,0.40
2022-10-26T15:35:11.803Z,0.50
2022-10-26T15:37:39.378Z,0.70
2022-10-26T15:40:07.172Z,0.40
2022-10-26T15:42:38.206Z,0.52
2022-10-26T15:45:26.287Z,0.57
2022-10-26T15:47:55.627Z,0.50
2022-10-26T15:50:25.138Z,0.60
2022-10-26T15:52:59.541Z,0.40
2022-10-26T15:55:26.280Z,0.40
2022-10-26T15:57:53.002Z,0.45
2022-10-26T16:00:21.001Z,0.70
2022-10-26T16:02:47.821Z,0.65
2022-10-26T16:05:16.523Z,0.68
2022-10-26T16:07:48.070Z,0.70
2022-10-26T16:10:23.224Z,0.80
2022-10-26T16:12:50.425Z,0.70
2022-10-26T16:15:22.890Z,0.65
2022-10-26T16:17:50.460Z,0.70
2022-10-26T16:20:23.274Z,0.70
2022-10-26T16:22:52.269Z,0.63
2022-10-26T16:25:25.356Z,0.63
2022-10-26T16:27:53.329Z,0.55
2022-10-26T16:30:20.891Z,0.63
2022-10-26T16:32:47.869Z,0.60
2022-10-26T16:35:15.121Z,0.70
2022-10-26T16:37:42.215Z,0.70
2022-10-26T16:40:09.923Z,0.82
2022-10-26T16:42:36.605Z,0.68
2022-10-26T16:45:04.368Z,0.52
2022-10-26T16:47:35.816Z,0.88
2022-10-26T16:50:04.586Z,0.80
2022-10-26T16:52:36.826Z,0.82
2022-10-26T16:55:05.546Z,0.90
2022-10-26T16:57:32.755Z,0.80
2022-10-26T17:00:00.776Z,1.00
2022-10-26T17:02:29.154Z,1.00
2022-10-26T17:04:56.505Z,0.93
2022-10-26T17:07:24.218Z,0.80
2022-10-26T17:09:51.121Z,0.90
2022-10-26T17:12:18.478Z,0.82
2022-10-26T17:14:45.353Z,1.27
2022-10-26T17:17:12.194Z,1.10
2022-10-26T17:19:38.916Z,1.00
2022-10-26T17:22:08.018Z,1.10
2022-10-26T17:24:36.387Z,1.10
2022-10-26T17:27:03.163Z,1.02
2022-10-26T17:29:29.975Z,1.40
2022-10-26T17:31:58.716Z,1.80
2022-10-26T17:34:27.564Z,1.30
2022-10-26T17:36:54.204Z,1.10
2022-10-26T17:39:20.923Z,1.42
2022-10-26T17:41:47.770Z,1.60
2022-10-26T17:44:14.416Z,1.00
2022-10-26T17:46:40.964Z,1.08
2022-10-26T17:49:07.595Z,1.30
2022-10-26T17:51:34.205Z,2.10
2022-10-26T17:54:01.001Z,2.15
2022-10-26T17:56:33.262Z,1.30
2022-10-26T17:59:03.327Z,0.88
2022-10-26T18:01:31.984Z,0.90
2022-10-26T18:03:59.091Z,1.10
2022-10-26T18:06:26.011Z,0.80
2022-10-26T18:08:52.703Z,1.02
2022-10-26T18:11:26.401Z,0.77
2022-10-26T18:13:55.239Z,1.10
2022-10-26T18:16:23.628Z,1.40
2022-10-26T18:19:00.799Z,2.70
2022-10-26T18:21:32.319Z,4.63
2022-10-26T18:23:59.368Z,3.78
2022-10-26T18:26:31.253Z,2.83
2022-10-26T18:28:59.399Z,3.05
2022-10-26T18:31:27.705Z,2.55
2022-10-26T18:33:57.217Z,2.20
2022-10-26T18:36:24.526Z,1.20
2022-10-26T18:38:51.593Z,1.20
2022-10-26T18:41:20.632Z,1.25
2022-10-26T18:43:50.094Z,1.80
2022-10-26T18:46:23.394Z,1.90
2022-10-26T18:48:53.536Z,1.02
2022-10-26T18:51:22.923Z,1.50
2022-10-26T18:53:49.873Z,1.02
2022-10-26T18:56:19.372Z,1.15
2022-10-26T18:58:50.481Z,1.17
2022-10-26T19:01:19.764Z,1.40
2022-10-26T19:03:47.093Z,1.23
2022-10-26T19:06:22.673Z,1.38
2022-10-26T19:08:49.362Z,1.00
2022-10-26T19:11:18.496Z,1.00
2022-10-26T19:13:46.267Z,1.08
2022-10-26T19:16:40.737Z,1.10
2022-10-26T19:19:06.588Z,1.02
2022-10-26T19:21:33.319Z,0.80
2022-10-26T19:24:01.500Z,0.88
2022-10-26T19:26:36.012Z,1.00
2022-10-26T19:29:06.982Z,0.70
2022-10-26T19:31:35.838Z,0.60
2022-10-26T19:34:03.507Z,1.17
2022-10-26T19:36:30.797Z,0.85
2022-10-26T19:38:57.472Z,0.73
2022-10-26T19:41:26.679Z,1.85
2022-10-26T19:43:54.603Z,0.88
2022-10-26T19:46:26.561Z,0.88
2022-10-26T19:48:58.052Z,0.90
2022-10-26T19:51:26.239Z,1.02
2022-10-26T19:53:52.931Z,0.93
2022-10-26T19:56:20.818Z,1.00
2022-10-26T19:58:52.632Z,0.93
2022-10-26T20:01:19.417Z,1.55
2022-10-26T20:03:46.251Z,1.25
2022-10-26T20:06:13.639Z,1.02
2022-10-26T20:08:42.264Z,1.00
2022-10-26T20:11:13.255Z,1.83
2022-10-26T20:13:43.506Z,1.20
2022-10-26T20:16:11.289Z,1.02
2022-10-26T20:18:39.941Z,1.40
2022-10-26T20:21:11.077Z,0.82
2022-10-26T20:23:38.431Z,0.93
2022-10-26T20:28:33.044Z,0.77
2022-10-26T20:31:00.004Z,0.77
2022-10-26T20:33:27.541Z,0.65
2022-10-26T20:36:00.725Z,0.52
2022-10-26T20:38:28.478Z,0.40
2022-10-26T20:40:57.567Z,0.75
2022-10-26T20:43:25.627Z,0.55
2022-10-26T20:45:53.285Z,0.55
2022-10-26T20:48:20.985Z,0.45
2022-10-26T20:50:57.287Z,0.47
2022-10-26T20:53:36.104Z,0.40
2022-10-26T20:56:06.805Z,0.40
2022-10-26T20:58:45.405Z,0.20
2022-10-26T21:01:23.710Z,0.30
2022-10-26T21:03:51.476Z,0.32
2022-10-26T21:06:18.675Z,0.30
2022-10-26T21:08:45.835Z,0.30
2022-10-26T21:11:13.009Z,0.30
2022-10-26T21:13:40.213Z,0.20
2022-10-26T21:16:07.544Z,0.25
2022-10-26T21:18:34.738Z,0.20
2022-10-26T21:21:02.350Z,0.20
2022-10-26T21:23:31.265Z,0.30
2022-10-26T21:26:03.422Z,0.20
2022-10-26T21:28:38.586Z,0.30
2022-10-26T21:31:07.717Z,0.50
2022-10-26T21:33:34.757Z,0.50
2022-10-26T21:36:04.278Z,0.30
2022-10-26T21:38:33.097Z,0.55
2022-10-26T21:41:07.134Z,0.57
2022-10-26T21:43:35.922Z,0.50
2022-10-26T21:46:03.917Z,0.57
2022-10-26T21:48:33.129Z,0.40
2022-10-26T21:51:07.395Z,0.70
2022-10-26T21:53:34.652Z,0.50
2022-10-26T21:56:02.806Z,0.50
2022-10-26T21:58:30.978Z,0.60
2022-10-26T22:01:10.128Z,0.60
2022-10-26T22:03:37.513Z,0.40
2022-10-26T22:06:06.079Z,0.40
2022-10-26T22:08:33.705Z,0.45
2022-10-26T22:11:25.701Z,0.50
2022-10-26T22:13:53.651Z,0.30
2022-10-26T22:16:22.187Z,2.38
2022-10-26T22:18:51.007Z,1.02
2022-10-26T22:21:19.081Z,0.40
2022-10-26T22:23:49.149Z,0.40
2022-10-26T22:26:18.987Z,0.30
2022-10-26T22:28:47.766Z,0.22
2022-10-26T22:31:20.484Z,0.30
2022-10-26T22:33:57.527Z,0.30
2022-10-26T22:36:25.633Z,0.20
2022-10-26T22:38:53.176Z,0.38
2022-10-26T22:41:21.532Z,0.20
2022-10-26T22:43:50.903Z,0.38
2022-10-26T22:46:22.448Z,0.32
2022-10-26T22:48:57.907Z,0.40
2022-10-26T22:51:26.695Z,0.40
2022-10-26T22:53:55.618Z,0.40
2022-10-26T22:56:24.041Z,0.30
2022-10-26T22:58:54.521Z,0.60
2022-10-26T23:01:24.433Z,0.28
2022-10-26T23:03:53.714Z,0.75
2022-10-26T23:06:22.031Z,0.30
2022-10-26T23:08:49.735Z,0.40
2022-10-26T23:11:19.041Z,0.40
2022-10-26T23:13:46.156Z,0.30
2022-10-26T23:16:20.815Z,0.30
2022-10-26T23:18:49.400Z,0.20
2022-10-26T23:21:19.561Z,0.30
2022-10-26T23:23:46.815Z,0.47
2022-10-26T23:26:17.248Z,0.40
2022-10-26T23:28:46.036Z,0.35
2022-10-26T23:31:19.386Z,0.38
2022-10-26T23:33:46.681Z,0.30
2022-10-26T23:36:13.907Z,0.40
2022-10-26T23:38:40.906Z,0.40
2022-10-26T23:41:10.882Z,0.47
2022-10-26T23:43:40.335Z,0.30
2022-10-26T23:46:07.724Z,0.40
2022-10-26T23:48:34.966Z,0.40
2022-10-26T23:51:02.097Z,0.40
2022-10-26T23:53:29.033Z,0.50
2022-10-26T23:55:56.111Z,0.40
2022-10-26T23:58:25.047Z,0.38
